sensor_id;sensor_type;location;lat;lon;timestamp;temperature;humidity
67870;DHT22;54673;52.262;6.830;2023-05-24T00:01:17;22.70;39.60
67870;DHT22;54673;52.262;6.830;2023-05-24T00:03:50;22.60;39.60
67870;DHT22;54673;52.262;6.830;2023-05-24T00:06:16;22.60;39.70
67870;DHT22;54673;52.262;6.830;2023-05-24T00:08:42;22.60;39.60
67870;DHT22;54673;52.262;6.830;2023-05-24T00:11:07;22.70;39.70
67870;DHT22;54673;52.262;6.830;2023-05-24T00:13:35;22.60;39.70
67870;DHT22;54673;52.262;6.830;2023-05-24T00:16:00;22.60;39.80
67870;DHT22;54673;52.262;6.830;2023-05-24T00:18:26;22.60;39.70
67870;DHT22;54673;52.262;6.830;2023-05-24T00:20:51;22.70;39.80
67870;DHT22;54673;52.262;6.830;2023-05-24T00:23:17;22.60;39.80
67870;DHT22;54673;52.262;6.830;2023-05-24T00:25:43;22.60;39.70
67870;DHT22;54673;52.262;6.830;2023-05-24T00:28:08;22.60;39.80
67870;DHT22;54673;52.262;6.830;2023-05-24T00:30:34;22.60;39.70
67870;DHT22;54673;52.262;6.830;2023-05-24T00:33:00;22.60;39.80
67870;DHT22;54673;52.262;6.830;2023-05-24T00:35:26;22.60;39.70
67870;DHT22;54673;52.262;6.830;2023-05-24T00:37:52;22.60;39.80
67870;DHT22;54673;52.262;6.830;2023-05-24T00:40:17;22.60;39.80
67870;DHT22;54673;52.262;6.830;2023-05-24T00:42:43;22.60;39.80
67870;DHT22;54673;52.262;6.830;2023-05-24T00:45:09;22.60;39.80
67870;DHT22;54673;52.262;6.830;2023-05-24T00:47:35;22.60;39.80
67870;DHT22;54673;52.262;6.830;2023-05-24T00:50:01;22.60;39.80
67870;DHT22;54673;52.262;6.830;2023-05-24T00:52:27;22.60;39.80
67870;DHT22;54673;52.262;6.830;2023-05-24T00:54:53;22.60;39.80
67870;DHT22;54673;52.262;6.830;2023-05-24T00:57:19;22.60;39.80
67870;DHT22;54673;52.262;6.830;2023-05-24T00:59:46;22.60;39.80
67870;DHT22;54673;52.262;6.830;2023-05-24T01:02:11;22.60;39.80
67870;DHT22;54673;52.262;6.830;2023-05-24T01:04:37;22.60;39.80
67870;DHT22;54673;52.262;6.830;2023-05-24T01:13:28;22.60;39.80
67870;DHT22;54673;52.262;6.830;2023-05-24T01:15:44;22.60;39.80
67870;DHT22;54673;52.262;6.830;2023-05-24T01:18:23;22.60;39.80
67870;DHT22;54673;52.262;6.830;2023-05-24T01:29:33;22.60;40.70
67870;DHT22;54673;52.262;6.830;2023-05-24T01:31:59;22.60;39.80
67870;DHT22;54673;52.262;6.830;2023-05-24T01:34:25;22.60;39.80
67870;DHT22;54673;52.262;6.830;2023-05-24T01:36:51;22.60;40.70
67870;DHT22;54673;52.262;6.830;2023-05-24T01:39:17;22.60;39.80
67870;DHT22;54673;52.262;6.830;2023-05-24T01:44:28;22.60;39.80
67870;DHT22;54673;52.262;6.830;2023-05-24T01:47:01;22.60;39.80
67870;DHT22;54673;52.262;6.830;2023-05-24T01:49:33;22.30;39.60
67870;DHT22;54673;52.262;6.830;2023-05-24T01:52:04;22.60;39.80
67870;DHT22;54673;52.262;6.830;2023-05-24T01:54:35;22.60;39.80
67870;DHT22;54673;52.262;6.830;2023-05-24T01:57:05;22.50;39.70
67870;DHT22;54673;52.262;6.830;2023-05-24T01:59:32;22.60;39.70
67870;DHT22;54673;52.262;6.830;2023-05-24T02:01:58;22.60;39.80
67870;DHT22;54673;52.262;6.830;2023-05-24T02:04:24;22.60;39.80
67870;DHT22;54673;52.262;6.830;2023-05-24T02:06:50;22.60;39.70
67870;DHT22;54673;52.262;6.830;2023-05-24T02:09:15;22.60;39.80
67870;DHT22;54673;52.262;6.830;2023-05-24T02:11:41;22.60;39.80
67870;DHT22;54673;52.262;6.830;2023-05-24T02:14:06;22.60;39.80
67870;DHT22;54673;52.262;6.830;2023-05-24T02:16:32;22.50;39.70
67870;DHT22;54673;52.262;6.830;2023-05-24T02:18:57;22.50;39.70
67870;DHT22;54673;52.262;6.830;2023-05-24T02:21:23;22.70;39.80
67870;DHT22;54673;52.262;6.830;2023-05-24T02:23:50;22.50;39.70
67870;DHT22;54673;52.262;6.830;2023-05-24T02:26:15;22.60;40.60
67870;DHT22;54673;52.262;6.830;2023-05-24T02:28:42;22.50;39.70
67870;DHT22;54673;52.262;6.830;2023-05-24T02:31:08;22.50;39.70
67870;DHT22;54673;52.262;6.830;2023-05-24T02:33:35;22.50;39.70
67870;DHT22;54673;52.262;6.830;2023-05-24T02:36:00;22.50;40.20
67870;DHT22;54673;52.262;6.830;2023-05-24T02:38:26;22.50;39.70
67870;DHT22;54673;52.262;6.830;2023-05-24T02:40:51;22.50;39.70
67870;DHT22;54673;52.262;6.830;2023-05-24T02:43:17;22.50;40.60
67870;DHT22;54673;52.262;6.830;2023-05-24T02:45:43;22.50;39.70
67870;DHT22;54673;52.262;6.830;2023-05-24T02:48:08;22.50;39.70
67870;DHT22;54673;52.262;6.830;2023-05-24T02:50:34;22.50;39.70
67870;DHT22;54673;52.262;6.830;2023-05-24T02:53:01;22.50;39.70
67870;DHT22;54673;52.262;6.830;2023-05-24T02:55:26;22.50;39.70
67870;DHT22;54673;52.262;6.830;2023-05-24T02:57:53;22.50;39.70
67870;DHT22;54673;52.262;6.830;2023-05-24T03:00:19;22.50;39.70
67870;DHT22;54673;52.262;6.830;2023-05-24T03:02:45;22.60;39.70
67870;DHT22;54673;52.262;6.830;2023-05-24T03:05:12;22.50;39.70
67870;DHT22;54673;52.262;6.830;2023-05-24T03:07:37;22.50;39.70
67870;DHT22;54673;52.262;6.830;2023-05-24T03:10:03;22.50;39.70
67870;DHT22;54673;52.262;6.830;2023-05-24T03:12:29;22.50;39.70
67870;DHT22;54673;52.262;6.830;2023-05-24T03:14:55;22.50;39.70
67870;DHT22;54673;52.262;6.830;2023-05-24T03:17:20;22.50;39.80
67870;DHT22;54673;52.262;6.830;2023-05-24T03:19:46;22.40;39.60
67870;DHT22;54673;52.262;6.830;2023-05-24T03:22:11;22.50;39.70
67870;DHT22;54673;52.262;6.830;2023-05-24T03:24:37;22.40;39.60
67870;DHT22;54673;52.262;6.830;2023-05-24T03:27:03;22.50;39.70
67870;DHT22;54673;52.262;6.830;2023-05-24T03:29:29;22.50;39.70
67870;DHT22;54673;52.262;6.830;2023-05-24T03:31:54;22.50;39.70
67870;DHT22;54673;52.262;6.830;2023-05-24T03:34:20;22.40;39.60
67870;DHT22;54673;52.262;6.830;2023-05-24T03:36:46;22.50;39.70
67870;DHT22;54673;52.262;6.830;2023-05-24T03:39:11;23.10;40.00
67870;DHT22;54673;52.262;6.830;2023-05-24T03:41:37;22.50;39.70
67870;DHT22;54673;52.262;6.830;2023-05-24T03:44:02;22.50;39.70
67870;DHT22;54673;52.262;6.830;2023-05-24T03:46:28;22.50;39.70
67870;DHT22;54673;52.262;6.830;2023-05-24T03:48:53;22.40;39.70
67870;DHT22;54673;52.262;6.830;2023-05-24T03:51:19;22.50;39.70
67870;DHT22;54673;52.262;6.830;2023-05-24T03:53:45;22.50;39.70
67870;DHT22;54673;52.262;6.830;2023-05-24T03:56:10;22.40;39.70
67870;DHT22;54673;52.262;6.830;2023-05-24T03:58:36;22.40;39.60
67870;DHT22;54673;52.262;6.830;2023-05-24T04:01:02;22.40;39.60
67870;DHT22;54673;52.262;6.830;2023-05-24T04:03:27;22.40;39.60
67870;DHT22;54673;52.262;6.830;2023-05-24T04:05:53;22.40;39.70
67870;DHT22;54673;52.262;6.830;2023-05-24T04:08:19;22.40;39.60
67870;DHT22;54673;52.262;6.830;2023-05-24T04:10:45;22.40;39.70
67870;DHT22;54673;52.262;6.830;2023-05-24T04:13:10;22.40;39.60
67870;DHT22;54673;52.262;6.830;2023-05-24T04:15:36;22.40;39.70
67870;DHT22;54673;52.262;6.830;2023-05-24T04:18:02;22.40;39.70
67870;DHT22;54673;52.262;6.830;2023-05-24T04:20:27;22.30;39.60
67870;DHT22;54673;52.262;6.830;2023-05-24T04:22:54;22.40;39.70
67870;DHT22;54673;52.262;6.830;2023-05-24T04:25:20;22.40;39.70
67870;DHT22;54673;52.262;6.830;2023-05-24T04:27:46;22.40;39.80
67870;DHT22;54673;52.262;6.830;2023-05-24T04:30:15;22.30;39.70
67870;DHT22;54673;52.262;6.830;2023-05-24T04:32:41;22.40;39.80
67870;DHT22;54673;52.262;6.830;2023-05-24T04:35:09;22.30;39.60
67870;DHT22;54673;52.262;6.830;2023-05-24T04:37:35;22.30;39.70
67870;DHT22;54673;52.262;6.830;2023-05-24T04:40:00;22.30;39.70
67870;DHT22;54673;52.262;6.830;2023-05-24T04:42:29;22.30;39.70
67870;DHT22;54673;52.262;6.830;2023-05-24T04:44:56;22.30;39.70
67870;DHT22;54673;52.262;6.830;2023-05-24T04:47:21;22.30;39.70
67870;DHT22;54673;52.262;6.830;2023-05-24T04:49:47;22.30;39.70
67870;DHT22;54673;52.262;6.830;2023-05-24T04:52:12;22.30;39.70
67870;DHT22;54673;52.262;6.830;2023-05-24T04:54:38;22.30;39.70
67870;DHT22;54673;52.262;6.830;2023-05-24T04:57:04;22.30;39.80
67870;DHT22;54673;52.262;6.830;2023-05-24T04:59:29;22.30;39.70
67870;DHT22;54673;52.262;6.830;2023-05-24T05:01:55;22.30;39.80
67870;DHT22;54673;52.262;6.830;2023-05-24T05:04:20;22.30;39.90
67870;DHT22;54673;52.262;6.830;2023-05-24T05:06:46;22.30;39.90
67870;DHT22;54673;52.262;6.830;2023-05-24T05:09:12;22.30;39.80
67870;DHT22;54673;52.262;6.830;2023-05-24T05:11:39;22.30;39.80
67870;DHT22;54673;52.262;6.830;2023-05-24T05:14:04;22.30;39.70
67870;DHT22;54673;52.262;6.830;2023-05-24T05:16:30;22.30;39.80
67870;DHT22;54673;52.262;6.830;2023-05-24T05:18:56;22.30;39.80
67870;DHT22;54673;52.262;6.830;2023-05-24T05:21:22;22.30;39.90
67870;DHT22;54673;52.262;6.830;2023-05-24T05:23:47;22.30;39.80
67870;DHT22;54673;52.262;6.830;2023-05-24T05:26:13;22.30;39.80
67870;DHT22;54673;52.262;6.830;2023-05-24T05:28:38;22.30;39.80
67870;DHT22;54673;52.262;6.830;2023-05-24T05:31:04;22.30;39.90
67870;DHT22;54673;52.262;6.830;2023-05-24T05:33:30;22.30;39.80
67870;DHT22;54673;52.262;6.830;2023-05-24T05:35:56;22.30;39.80
67870;DHT22;54673;52.262;6.830;2023-05-24T05:38:22;22.30;39.90
67870;DHT22;54673;52.262;6.830;2023-05-24T05:40:47;22.30;39.90
67870;DHT22;54673;52.262;6.830;2023-05-24T05:43:13;22.30;39.90
67870;DHT22;54673;52.262;6.830;2023-05-24T05:45:38;22.30;40.00
67870;DHT22;54673;52.262;6.830;2023-05-24T05:48:04;22.30;39.90
67870;DHT22;54673;52.262;6.830;2023-05-24T05:50:30;22.30;39.90
67870;DHT22;54673;52.262;6.830;2023-05-24T05:52:55;22.30;39.90
67870;DHT22;54673;52.262;6.830;2023-05-24T05:55:22;22.30;39.90
67870;DHT22;54673;52.262;6.830;2023-05-24T05:57:49;22.30;39.90
67870;DHT22;54673;52.262;6.830;2023-05-24T06:00:15;22.30;39.90
67870;DHT22;54673;52.262;6.830;2023-05-24T06:02:41;22.30;39.80
67870;DHT22;54673;52.262;6.830;2023-05-24T06:05:07;21.80;39.60
67870;DHT22;54673;52.262;6.830;2023-05-24T06:07:32;22.30;39.80
67870;DHT22;54673;52.262;6.830;2023-05-24T06:09:58;22.30;39.80
67870;DHT22;54673;52.262;6.830;2023-05-24T06:12:24;22.30;39.90
67870;DHT22;54673;52.262;6.830;2023-05-24T06:14:50;22.30;39.80
67870;DHT22;54673;52.262;6.830;2023-05-24T06:17:16;22.40;39.90
67870;DHT22;54673;52.262;6.830;2023-05-24T06:19:43;22.30;39.80
67870;DHT22;54673;52.262;6.830;2023-05-24T06:22:08;22.30;40.70
67870;DHT22;54673;52.262;6.830;2023-05-24T06:24:34;22.30;39.80
67870;DHT22;54673;52.262;6.830;2023-05-24T06:27:00;22.30;39.80
67870;DHT22;54673;52.262;6.830;2023-05-24T06:29:26;22.30;39.80
67870;DHT22;54673;52.262;6.830;2023-05-24T06:31:51;22.30;40.80
67870;DHT22;54673;52.262;6.830;2023-05-24T06:34:20;22.30;39.80
67870;DHT22;54673;52.262;6.830;2023-05-24T06:36:46;22.30;39.80
67870;DHT22;54673;52.262;6.830;2023-05-24T06:39:13;22.30;39.80
67870;DHT22;54673;52.262;6.830;2023-05-24T06:41:39;22.30;39.80
67870;DHT22;54673;52.262;6.830;2023-05-24T06:44:05;22.30;39.80
67870;DHT22;54673;52.262;6.830;2023-05-24T06:46:31;22.30;40.30
67870;DHT22;54673;52.262;6.830;2023-05-24T06:48:57;22.30;39.80
67870;DHT22;54673;52.262;6.830;2023-05-24T06:51:22;22.30;39.80
67870;DHT22;54673;52.262;6.830;2023-05-24T06:53:48;22.30;39.80
67870;DHT22;54673;52.262;6.830;2023-05-24T06:56:13;22.30;39.80
67870;DHT22;54673;52.262;6.830;2023-05-24T06:58:39;22.30;39.80
67870;DHT22;54673;52.262;6.830;2023-05-24T07:01:05;22.30;39.80
67870;DHT22;54673;52.262;6.830;2023-05-24T07:03:30;22.30;39.80
67870;DHT22;54673;52.262;6.830;2023-05-24T07:05:56;22.30;39.80
67870;DHT22;54673;52.262;6.830;2023-05-24T07:08:23;22.30;39.80
67870;DHT22;54673;52.262;6.830;2023-05-24T07:10:49;22.30;39.80
67870;DHT22;54673;52.262;6.830;2023-05-24T07:13:14;22.40;40.00
67870;DHT22;54673;52.262;6.830;2023-05-24T07:15:40;22.30;40.00
67870;DHT22;54673;52.262;6.830;2023-05-24T07:18:06;22.30;39.90
67870;DHT22;54673;52.262;6.830;2023-05-24T07:20:32;22.30;40.00
67870;DHT22;54673;52.262;6.830;2023-05-24T07:22:58;22.30;40.00
67870;DHT22;54673;52.262;6.830;2023-05-24T07:25:24;22.30;40.00
67870;DHT22;54673;52.262;6.830;2023-05-24T07:27:50;22.30;40.00
67870;DHT22;54673;52.262;6.830;2023-05-24T07:30:16;22.30;40.00
67870;DHT22;54673;52.262;6.830;2023-05-24T07:32:41;22.30;40.00
67870;DHT22;54673;52.262;6.830;2023-05-24T07:35:09;22.30;40.00
67870;DHT22;54673;52.262;6.830;2023-05-24T07:37:37;22.30;40.00
67870;DHT22;54673;52.262;6.830;2023-05-24T07:40:03;22.30;40.00
67870;DHT22;54673;52.262;6.830;2023-05-24T07:42:30;22.30;40.00
67870;DHT22;54673;52.262;6.830;2023-05-24T07:44:55;22.30;40.00
67870;DHT22;54673;52.262;6.830;2023-05-24T07:47:21;22.30;40.00
67870;DHT22;54673;52.262;6.830;2023-05-24T07:49:47;22.30;39.90
67870;DHT22;54673;52.262;6.830;2023-05-24T07:52:12;22.30;39.90
67870;DHT22;54673;52.262;6.830;2023-05-24T07:54:38;22.30;39.90
67870;DHT22;54673;52.262;6.830;2023-05-24T07:57:04;22.30;39.90
67870;DHT22;54673;52.262;6.830;2023-05-24T07:59:30;22.30;40.00
67870;DHT22;54673;52.262;6.830;2023-05-24T08:01:55;22.30;39.90
67870;DHT22;54673;52.262;6.830;2023-05-24T08:04:25;22.30;39.90
67870;DHT22;54673;52.262;6.830;2023-05-24T08:06:51;22.30;39.80
67870;DHT22;54673;52.262;6.830;2023-05-24T08:09:17;22.30;39.80
67870;DHT22;54673;52.262;6.830;2023-05-24T08:11:42;22.30;39.90
67870;DHT22;54673;52.262;6.830;2023-05-24T08:14:08;22.30;40.00
67870;DHT22;54673;52.262;6.830;2023-05-24T08:16:33;22.30;39.90
67870;DHT22;54673;52.262;6.830;2023-05-24T08:18:59;22.30;39.80
67870;DHT22;54673;52.262;6.830;2023-05-24T08:21:24;22.30;40.00
67870;DHT22;54673;52.262;6.830;2023-05-24T08:23:50;22.30;39.90
67870;DHT22;54673;52.262;6.830;2023-05-24T08:26:16;22.30;39.90
67870;DHT22;54673;52.262;6.830;2023-05-24T08:28:43;22.30;39.90
67870;DHT22;54673;52.262;6.830;2023-05-24T08:31:09;22.30;40.10
67870;DHT22;54673;52.262;6.830;2023-05-24T08:33:35;22.30;39.90
67870;DHT22;54673;52.262;6.830;2023-05-24T08:36:00;22.30;39.90
67870;DHT22;54673;52.262;6.830;2023-05-24T08:38:26;22.30;39.90
67870;DHT22;54673;52.262;6.830;2023-05-24T08:40:53;22.30;39.90
67870;DHT22;54673;52.262;6.830;2023-05-24T08:43:20;22.30;39.80
67870;DHT22;54673;52.262;6.830;2023-05-24T08:45:45;22.30;39.80
67870;DHT22;54673;52.262;6.830;2023-05-24T08:48:13;22.30;39.80
67870;DHT22;54673;52.262;6.830;2023-05-24T08:50:39;22.30;39.70
67870;DHT22;54673;52.262;6.830;2023-05-24T08:53:07;22.30;39.60
67870;DHT22;54673;52.262;6.830;2023-05-24T08:55:34;22.30;39.50
67870;DHT22;54673;52.262;6.830;2023-05-24T08:58:00;22.30;39.50
67870;DHT22;54673;52.262;6.830;2023-05-24T09:00:26;22.30;39.40
67870;DHT22;54673;52.262;6.830;2023-05-24T09:02:52;22.30;39.40
67870;DHT22;54673;52.262;6.830;2023-05-24T09:05:18;22.30;39.50
67870;DHT22;54673;52.262;6.830;2023-05-24T09:07:47;22.30;39.30
67870;DHT22;54673;52.262;6.830;2023-05-24T09:10:14;22.30;39.30
67870;DHT22;54673;52.262;6.830;2023-05-24T09:12:44;22.30;39.20
67870;DHT22;54673;52.262;6.830;2023-05-24T09:15:10;22.30;39.10
67870;DHT22;54673;52.262;6.830;2023-05-24T09:17:37;22.20;39.00
67870;DHT22;54673;52.262;6.830;2023-05-24T09:20:06;22.20;39.10
67870;DHT22;54673;52.262;6.830;2023-05-24T09:22:35;22.30;39.30
67870;DHT22;54673;52.262;6.830;2023-05-24T09:25:02;22.30;39.30
67870;DHT22;54673;52.262;6.830;2023-05-24T09:27:31;22.30;39.30
67870;DHT22;54673;52.262;6.830;2023-05-24T09:29:57;22.40;39.30
67870;DHT22;54673;52.262;6.830;2023-05-24T09:32:23;22.40;39.30
67870;DHT22;54673;52.262;6.830;2023-05-24T09:34:50;22.40;39.30
67870;DHT22;54673;52.262;6.830;2023-05-24T09:37:19;22.40;39.20
67870;DHT22;54673;52.262;6.830;2023-05-24T09:39:46;22.40;39.10
67870;DHT22;54673;52.262;6.830;2023-05-24T09:42:16;22.50;39.10
67870;DHT22;54673;52.262;6.830;2023-05-24T09:44:48;22.40;39.00
67870;DHT22;54673;52.262;6.830;2023-05-24T09:47:15;22.50;39.00
67870;DHT22;54673;52.262;6.830;2023-05-24T09:49:41;22.40;38.80
67870;DHT22;54673;52.262;6.830;2023-05-24T09:52:07;22.60;38.90
67870;DHT22;54673;52.262;6.830;2023-05-24T09:54:33;22.50;38.80
67870;DHT22;54673;52.262;6.830;2023-05-24T09:57:01;22.50;38.80
67870;DHT22;54673;52.262;6.830;2023-05-24T09:59:31;22.50;38.70
67870;DHT22;54673;52.262;6.830;2023-05-24T10:02:07;22.50;38.50
67870;DHT22;54673;52.262;6.830;2023-05-24T10:04:40;22.50;38.30
67870;DHT22;54673;52.262;6.830;2023-05-24T10:07:06;22.50;38.20
67870;DHT22;54673;52.262;6.830;2023-05-24T10:09:33;22.50;38.20
67870;DHT22;54673;52.262;6.830;2023-05-24T10:12:04;22.50;38.30
67870;DHT22;54673;52.262;6.830;2023-05-24T10:14:37;22.40;38.20
67870;DHT22;54673;52.262;6.830;2023-05-24T10:17:07;22.40;38.40
67870;DHT22;54673;52.262;6.830;2023-05-24T10:19:33;22.40;38.70
67870;DHT22;54673;52.262;6.830;2023-05-24T10:22:00;22.40;38.90
67870;DHT22;54673;52.262;6.830;2023-05-24T10:24:32;22.50;38.80
67870;DHT22;54673;52.262;6.830;2023-05-24T10:27:02;22.40;38.50
67870;DHT22;54673;52.262;6.830;2023-05-24T10:29:40;22.40;38.40
67870;DHT22;54673;52.262;6.830;2023-05-24T10:32:09;22.30;38.40
67870;DHT22;54673;52.262;6.830;2023-05-24T10:34:35;22.30;38.60
67870;DHT22;54673;52.262;6.830;2023-05-24T10:37:02;22.30;38.70
67870;DHT22;54673;52.262;6.830;2023-05-24T10:39:27;22.30;38.70
67870;DHT22;54673;52.262;6.830;2023-05-24T10:41:56;22.30;38.70
67870;DHT22;54673;52.262;6.830;2023-05-24T10:44:28;22.30;38.60
67870;DHT22;54673;52.262;6.830;2023-05-24T10:49:50;22.40;38.70
67870;DHT22;54673;52.262;6.830;2023-05-24T10:52:17;22.40;38.60
67870;DHT22;54673;52.262;6.830;2023-05-24T10:57:30;22.40;38.50
67870;DHT22;54673;52.262;6.830;2023-05-24T11:03:05;22.40;38.20
67870;DHT22;54673;52.262;6.830;2023-05-24T11:05:34;22.40;38.20
67870;DHT22;54673;52.262;6.830;2023-05-24T11:08:01;22.40;38.30
67870;DHT22;54673;52.262;6.830;2023-05-24T11:10:31;22.40;38.20
67870;DHT22;54673;52.262;6.830;2023-05-24T11:13:01;22.40;38.20
67870;DHT22;54673;52.262;6.830;2023-05-24T11:15:28;22.50;38.20
67870;DHT22;54673;52.262;6.830;2023-05-24T11:20:44;22.50;38.00
67870;DHT22;54673;52.262;6.830;2023-05-24T11:23:12;22.50;37.90
67870;DHT22;54673;52.262;6.830;2023-05-24T11:25:38;22.50;37.80
67870;DHT22;54673;52.262;6.830;2023-05-24T11:28:08;22.40;37.90
67870;DHT22;54673;52.262;6.830;2023-05-24T11:30:52;22.50;37.90
67870;DHT22;54673;52.262;6.830;2023-05-24T11:33:22;22.40;37.80
67870;DHT22;54673;52.262;6.830;2023-05-24T11:35:51;22.40;37.80
67870;DHT22;54673;52.262;6.830;2023-05-24T11:38:18;22.40;37.80
67870;DHT22;54673;52.262;6.830;2023-05-24T11:40:46;22.40;37.80
67870;DHT22;54673;52.262;6.830;2023-05-24T11:43:16;22.60;37.80
67870;DHT22;54673;52.262;6.830;2023-05-24T11:45:44;22.50;37.60
67870;DHT22;54673;52.262;6.830;2023-05-24T11:48:11;22.50;37.60
67870;DHT22;54673;52.262;6.830;2023-05-24T11:50:47;22.40;37.60
67870;DHT22;54673;52.262;6.830;2023-05-24T11:53:17;22.50;37.70
67870;DHT22;54673;52.262;6.830;2023-05-24T11:55:43;22.50;37.80
67870;DHT22;54673;52.262;6.830;2023-05-24T12:00:42;22.50;38.10
67870;DHT22;54673;52.262;6.830;2023-05-24T12:03:08;22.50;38.10
67870;DHT22;54673;52.262;6.830;2023-05-24T12:05:35;22.50;38.10
67870;DHT22;54673;52.262;6.830;2023-05-24T12:08:03;22.50;38.20
67870;DHT22;54673;52.262;6.830;2023-05-24T12:10:33;22.60;38.90
67870;DHT22;54673;52.262;6.830;2023-05-24T12:12:59;22.60;38.40
67870;DHT22;54673;52.262;6.830;2023-05-24T12:15:24;22.60;38.40
67870;DHT22;54673;52.262;6.830;2023-05-24T12:17:50;22.70;38.40
67870;DHT22;54673;52.262;6.830;2023-05-24T12:20:18;22.60;38.30
67870;DHT22;54673;52.262;6.830;2023-05-24T12:22:50;22.60;38.40
67870;DHT22;54673;52.262;6.830;2023-05-24T12:25:18;22.70;38.40
67870;DHT22;54673;52.262;6.830;2023-05-24T12:27:46;22.70;38.50
67870;DHT22;54673;52.262;6.830;2023-05-24T12:30:16;22.70;38.50
67870;DHT22;54673;52.262;6.830;2023-05-24T12:32:47;22.70;38.40
67870;DHT22;54673;52.262;6.830;2023-05-24T12:35:12;22.70;38.40
67870;DHT22;54673;52.262;6.830;2023-05-24T12:37:38;22.70;38.50
67870;DHT22;54673;52.262;6.830;2023-05-24T12:42:39;22.70;38.70
67870;DHT22;54673;52.262;6.830;2023-05-24T12:45:05;22.70;38.80
67870;DHT22;54673;52.262;6.830;2023-05-24T12:47:31;22.70;38.90
67870;DHT22;54673;52.262;6.830;2023-05-24T12:49:57;22.70;38.70
67870;DHT22;54673;52.262;6.830;2023-05-24T12:52:22;22.70;38.80
67870;DHT22;54673;52.262;6.830;2023-05-24T12:54:48;22.70;38.40
67870;DHT22;54673;52.262;6.830;2023-05-24T12:57:14;22.70;38.30
67870;DHT22;54673;52.262;6.830;2023-05-24T12:59:39;22.70;38.20
67870;DHT22;54673;52.262;6.830;2023-05-24T13:02:05;22.70;38.10
67870;DHT22;54673;52.262;6.830;2023-05-24T13:04:31;22.60;38.00
67870;DHT22;54673;52.262;6.830;2023-05-24T13:06:58;22.60;37.90
67870;DHT22;54673;52.262;6.830;2023-05-24T13:09:24;22.60;37.90
67870;DHT22;54673;52.262;6.830;2023-05-24T13:11:50;22.60;38.00
67870;DHT22;54673;52.262;6.830;2023-05-24T13:14:17;22.60;38.10
67870;DHT22;54673;52.262;6.830;2023-05-24T13:16:43;22.60;38.20
67870;DHT22;54673;52.262;6.830;2023-05-24T13:19:09;22.60;38.30
67870;DHT22;54673;52.262;6.830;2023-05-24T13:21:35;22.60;38.40
67870;DHT22;54673;52.262;6.830;2023-05-24T13:24:01;22.60;38.30
67870;DHT22;54673;52.262;6.830;2023-05-24T13:26:26;22.70;38.30
67870;DHT22;54673;52.262;6.830;2023-05-24T13:28:52;22.70;38.20
67870;DHT22;54673;52.262;6.830;2023-05-24T13:31:17;22.70;38.20
67870;DHT22;54673;52.262;6.830;2023-05-24T13:33:43;22.70;38.10
67870;DHT22;54673;52.262;6.830;2023-05-24T13:36:08;22.70;38.00
67870;DHT22;54673;52.262;6.830;2023-05-24T13:38:34;22.70;37.90
67870;DHT22;54673;52.262;6.830;2023-05-24T13:41:00;22.70;37.90
67870;DHT22;54673;52.262;6.830;2023-05-24T13:43:26;22.70;37.90
67870;DHT22;54673;52.262;6.830;2023-05-24T13:45:51;22.70;37.90
67870;DHT22;54673;52.262;6.830;2023-05-24T13:48:17;22.80;37.90
67870;DHT22;54673;52.262;6.830;2023-05-24T13:50:42;22.80;37.90
67870;DHT22;54673;52.262;6.830;2023-05-24T13:53:09;22.80;37.80
67870;DHT22;54673;52.262;6.830;2023-05-24T13:55:35;22.80;38.60
67870;DHT22;54673;52.262;6.830;2023-05-24T13:58:02;22.80;37.80
67870;DHT22;54673;52.262;6.830;2023-05-24T14:00:29;22.80;37.60
67870;DHT22;54673;52.262;6.830;2023-05-24T14:02:55;22.80;37.50
67870;DHT22;54673;52.262;6.830;2023-05-24T14:05:20;22.80;37.50
67870;DHT22;54673;52.262;6.830;2023-05-24T14:07:47;22.90;37.50
67870;DHT22;54673;52.262;6.830;2023-05-24T14:10:12;22.80;37.20
67870;DHT22;54673;52.262;6.830;2023-05-24T14:12:38;22.80;37.20
67870;DHT22;54673;52.262;6.830;2023-05-24T14:15:04;22.80;37.30
67870;DHT22;54673;52.262;6.830;2023-05-24T14:17:30;22.90;37.40
67870;DHT22;54673;52.262;6.830;2023-05-24T14:19:56;22.90;37.20
67870;DHT22;54673;52.262;6.830;2023-05-24T14:22:22;22.90;37.20
67870;DHT22;54673;52.262;6.830;2023-05-24T14:24:50;22.90;37.20
67870;DHT22;54673;52.262;6.830;2023-05-24T14:27:15;22.90;37.40
67870;DHT22;54673;52.262;6.830;2023-05-24T14:29:41;22.90;38.50
67870;DHT22;54673;52.262;6.830;2023-05-24T14:32:06;22.90;37.60
67870;DHT22;54673;52.262;6.830;2023-05-24T14:34:33;22.90;37.50
67870;DHT22;54673;52.262;6.830;2023-05-24T14:36:58;22.90;37.60
67870;DHT22;54673;52.262;6.830;2023-05-24T14:39:24;22.90;37.80
67870;DHT22;54673;52.262;6.830;2023-05-24T14:41:50;22.90;37.60
67870;DHT22;54673;52.262;6.830;2023-05-24T14:44:15;23.00;37.60
67870;DHT22;54673;52.262;6.830;2023-05-24T14:46:42;22.90;37.50
67870;DHT22;54673;52.262;6.830;2023-05-24T14:49:07;22.90;38.20
67870;DHT22;54673;52.262;6.830;2023-05-24T14:51:33;22.90;37.20
67870;DHT22;54673;52.262;6.830;2023-05-24T14:53:58;22.80;37.10
67870;DHT22;54673;52.262;6.830;2023-05-24T14:56:24;22.80;37.20
67870;DHT22;54673;52.262;6.830;2023-05-24T14:58:49;22.80;37.30
67870;DHT22;54673;52.262;6.830;2023-05-24T15:01:15;22.80;37.30
67870;DHT22;54673;52.262;6.830;2023-05-24T15:03:41;22.70;37.40
67870;DHT22;54673;52.262;6.830;2023-05-24T15:06:06;22.80;37.50
67870;DHT22;54673;52.262;6.830;2023-05-24T15:08:32;22.70;37.50
67870;DHT22;54673;52.262;6.830;2023-05-24T15:10:58;22.80;37.70
67870;DHT22;54673;52.262;6.830;2023-05-24T15:13:24;22.70;37.80
67870;DHT22;54673;52.262;6.830;2023-05-24T15:15:50;22.70;37.90
67870;DHT22;54673;52.262;6.830;2023-05-24T15:18:18;22.70;38.00
67870;DHT22;54673;52.262;6.830;2023-05-24T15:20:43;22.80;38.20
67870;DHT22;54673;52.262;6.830;2023-05-24T15:23:09;22.80;38.20
67870;DHT22;54673;52.262;6.830;2023-05-24T15:25:35;22.80;38.30
67870;DHT22;54673;52.262;6.830;2023-05-24T15:28:01;22.80;38.30
67870;DHT22;54673;52.262;6.830;2023-05-24T15:30:27;22.80;38.40
67870;DHT22;54673;52.262;6.830;2023-05-24T15:32:52;22.80;38.40
67870;DHT22;54673;52.262;6.830;2023-05-24T15:35:18;22.80;38.50
67870;DHT22;54673;52.262;6.830;2023-05-24T15:37:44;22.80;39.50
67870;DHT22;54673;52.262;6.830;2023-05-24T15:40:10;22.80;38.60
67870;DHT22;54673;52.262;6.830;2023-05-24T15:42:36;22.80;38.70
67870;DHT22;54673;52.262;6.830;2023-05-24T15:45:02;22.80;38.80
67870;DHT22;54673;52.262;6.830;2023-05-24T15:47:28;22.80;38.70
67870;DHT22;54673;52.262;6.830;2023-05-24T15:50:00;22.80;38.80
67870;DHT22;54673;52.262;6.830;2023-05-24T15:52:26;22.80;38.90
67870;DHT22;54673;52.262;6.830;2023-05-24T15:54:51;22.80;39.00
67870;DHT22;54673;52.262;6.830;2023-05-24T15:57:17;22.80;39.00
67870;DHT22;54673;52.262;6.830;2023-05-24T15:59:42;22.80;38.90